createdAt,value
2022-12-13T00:01:31.282Z,13.65
2022-12-13T00:04:00.326Z,10.85
2022-12-13T00:06:28.943Z,11.50
2022-12-13T00:08:56.346Z,10.52
2022-12-13T00:11:24.000Z,15.43
2022-12-13T00:13:51.059Z,12.70
2022-12-13T00:16:22.807Z,12.32
2022-12-13T00:18:51.339Z,13.07
2022-12-13T00:21:21.310Z,13.57
2022-12-13T00:23:48.555Z,18.08
2022-12-13T00:26:18.970Z,11.70
2022-12-13T00:28:49.189Z,14.23
2022-12-13T00:34:05.071Z,12.80
2022-12-13T00:36:32.345Z,11.07
2022-12-13T00:39:02.607Z,12.57
2022-12-13T00:41:35.211Z,15.35
2022-12-13T00:44:03.425Z,14.48
2022-12-13T00:46:31.462Z,10.85
2022-12-13T00:49:01.146Z,17.80
2022-12-13T00:51:31.596Z,12.40
2022-12-13T00:53:59.846Z,12.85
2022-12-13T00:56:30.018Z,11.57
2022-12-13T00:58:57.691Z,13.45
2022-12-13T01:01:27.489Z,12.50
2022-12-13T01:03:56.793Z,12.73
2022-12-13T01:06:29.787Z,13.13
2022-12-13T01:08:56.998Z,12.70
2022-12-13T01:11:25.111Z,13.63
2022-12-13T01:13:52.361Z,12.23
2022-12-13T01:16:19.676Z,10.68
2022-12-13T01:18:47.398Z,12.75
2022-12-13T01:21:17.508Z,14.48
2022-12-13T01:23:45.326Z,15.88
2022-12-13T01:26:15.649Z,11.30
2022-12-13T01:28:42.889Z,10.50
2022-12-13T01:31:12.832Z,10.77
2022-12-13T01:33:40.574Z,11.88
2022-12-13T01:36:11.591Z,11.40
2022-12-13T01:38:38.485Z,11.98
2022-12-13T01:41:16.661Z,9.10
2022-12-13T01:43:45.012Z,11.73
2022-12-13T01:46:13.904Z,13.65
2022-12-13T01:49:20.046Z,10.50
2022-12-13T01:52:02.172Z,14.57
2022-12-13T01:54:36.862Z,12.38
2022-12-13T01:57:08.849Z,10.57
2022-12-13T01:59:38.841Z,18.30
2022-12-13T02:02:07.755Z,10.75
2022-12-13T02:04:43.793Z,11.20
2022-12-13T02:07:22.957Z,10.80
2022-12-13T02:09:57.934Z,8.45
2022-12-13T02:12:29.904Z,12.32
2022-12-13T02:15:04.885Z,13.48
2022-12-13T02:17:45.777Z,13.60
2022-12-13T02:20:58.265Z,9.80
2022-12-13T02:23:59.082Z,11.75
2022-12-13T02:26:59.510Z,8.35
2022-12-13T02:29:54.222Z,12.50
2022-12-13T02:32:43.884Z,14.00
2022-12-13T02:35:35.609Z,9.52
2022-12-13T02:38:08.475Z,11.88
2022-12-13T02:40:47.628Z,14.25
2022-12-13T02:43:24.171Z,12.15
2022-12-13T02:45:55.425Z,10.18
2022-12-13T02:48:27.494Z,8.52
2022-12-13T02:50:57.091Z,9.95
2022-12-13T02:53:25.580Z,10.52
2022-12-13T02:55:52.868Z,10.25
2022-12-13T02:58:23.333Z,8.18
2022-12-13T03:00:50.437Z,11.45
2022-12-13T03:03:30.436Z,9.45
2022-12-13T03:06:33.977Z,12.18
2022-12-13T03:12:36.957Z,10.23
2022-12-13T03:15:20.557Z,8.07
2022-12-13T03:18:06.993Z,11.50
2022-12-13T03:20:33.872Z,9.93
2022-12-13T03:23:01.003Z,8.25
2022-12-13T03:25:32.376Z,8.85
2022-12-13T03:28:02.422Z,7.28
2022-12-13T03:30:31.592Z,10.93
2022-12-13T03:32:58.904Z,8.05
2022-12-13T03:35:34.780Z,6.70
2022-12-13T03:38:22.690Z,7.05
2022-12-13T03:41:11.963Z,5.55
2022-12-13T03:43:40.542Z,7.68
2022-12-13T03:46:08.414Z,5.88
2022-12-13T03:48:35.996Z,6.47
2022-12-13T03:51:03.496Z,6.78
2022-12-13T03:53:34.133Z,5.95
2022-12-13T03:56:05.983Z,8.52
2022-12-13T03:58:35.687Z,6.07
2022-12-13T04:01:12.584Z,8.80
2022-12-13T04:03:41.234Z,10.25
2022-12-13T04:06:09.060Z,7.07
2022-12-13T04:08:37.664Z,7.25
2022-12-13T04:11:24.458Z,7.35
2022-12-13T04:13:53.301Z,7.53
2022-12-13T04:16:20.795Z,10.07
2022-12-13T04:18:48.079Z,5.90
2022-12-13T04:21:15.004Z,9.32
2022-12-13T04:23:42.191Z,7.85
2022-12-13T04:26:09.124Z,8.73
2022-12-13T04:28:36.408Z,6.68
2022-12-13T04:31:03.513Z,6.05
2022-12-13T04:33:32.721Z,8.25
2022-12-13T04:35:59.794Z,6.13
2022-12-13T04:38:26.996Z,7.22
2022-12-13T04:40:54.011Z,8.63
2022-12-13T04:43:21.127Z,8.80
2022-12-13T04:45:48.317Z,7.00
2022-12-13T04:48:31.404Z,11.02
2022-12-13T04:51:00.947Z,4.70
2022-12-13T04:53:31.821Z,6.85
2022-12-13T04:55:59.234Z,6.68
2022-12-13T04:58:27.413Z,7.20
2022-12-13T05:00:54.532Z,8.02
2022-12-13T05:03:22.438Z,7.57
2022-12-13T05:05:49.359Z,6.80
2022-12-13T05:08:16.983Z,11.55
2022-12-13T05:10:43.861Z,6.80
2022-12-13T05:13:11.143Z,8.20
2022-12-13T05:15:38.067Z,10.73
2022-12-13T05:18:09.754Z,7.25
2022-12-13T05:20:39.427Z,8.98
2022-12-13T05:23:06.945Z,9.05
2022-12-13T05:25:35.185Z,10.45
2022-12-13T05:28:08.790Z,10.88
2022-12-13T05:30:49.571Z,9.23
2022-12-13T05:33:16.953Z,10.23
2022-12-13T05:35:44.265Z,7.75
2022-12-13T05:38:11.765Z,11.20
2022-12-13T05:40:38.903Z,13.57
2022-12-13T05:43:21.320Z,16.50
2022-12-13T05:48:24.548Z,12.13
2022-12-13T05:50:52.586Z,10.18
2022-12-13T05:53:40.269Z,9.27
2022-12-13T05:56:07.543Z,16.75
2022-12-13T05:58:36.443Z,9.82
2022-12-13T06:01:14.868Z,8.30
2022-12-13T06:03:43.312Z,10.90
2022-12-13T06:06:12.104Z,9.95
2022-12-13T06:08:40.133Z,9.65
2022-12-13T06:11:10.329Z,9.68
2022-12-13T06:13:42.762Z,10.57
2022-12-13T06:16:23.400Z,9.55
2022-12-13T06:19:03.905Z,7.97
2022-12-13T06:21:41.529Z,10.45
2022-12-13T06:24:17.895Z,9.70
2022-12-13T06:26:45.827Z,8.27
2022-12-13T06:29:23.149Z,10.30
2022-12-13T06:32:03.103Z,11.05
2022-12-13T06:34:34.214Z,8.73
2022-12-13T06:37:02.589Z,9.77
2022-12-13T06:39:32.965Z,9.40
2022-12-13T06:42:06.271Z,12.02
2022-12-13T06:44:34.855Z,9.82
2022-12-13T06:47:11.532Z,9.68
2022-12-13T06:49:42.600Z,10.05
2022-12-13T06:52:14.274Z,10.60
2022-12-13T06:54:43.017Z,10.57
2022-12-13T06:57:12.336Z,9.38
2022-12-13T06:59:40.471Z,11.02
2022-12-13T07:02:24.725Z,9.50
2022-12-13T07:04:53.285Z,10.05
2022-12-13T07:07:20.127Z,8.18
2022-12-13T07:09:47.608Z,13.35
2022-12-13T07:12:14.649Z,11.63
2022-12-13T07:14:41.876Z,9.23
2022-12-13T07:17:08.877Z,8.60
2022-12-13T07:19:36.168Z,8.23
2022-12-13T07:22:05.867Z,8.48
2022-12-13T07:24:34.894Z,10.63
2022-12-13T07:27:03.204Z,10.93
2022-12-13T07:29:30.546Z,17.48
2022-12-13T07:32:01.374Z,71.68
2022-12-13T07:34:30.291Z,21.30
2022-12-13T07:36:57.361Z,60.03
2022-12-13T07:39:28.524Z,17.52
2022-12-13T07:41:56.139Z,31.67
2022-12-13T07:44:24.510Z,18.35
2022-12-13T07:46:51.746Z,8.82
2022-12-13T07:49:19.697Z,19.27
2022-12-13T07:51:46.676Z,12.07
2022-12-13T07:54:14.539Z,10.40
2022-12-13T07:56:41.781Z,16.85
2022-12-13T07:59:10.772Z,13.30
2022-12-13T08:01:38.002Z,9.45
2022-12-13T08:04:05.837Z,8.68
2022-12-13T08:06:37.248Z,9.93
2022-12-13T08:09:06.049Z,12.98
2022-12-13T08:11:33.650Z,8.75
2022-12-13T08:14:01.263Z,10.52
2022-12-13T08:16:29.597Z,13.60
2022-12-13T08:19:03.001Z,8.98
2022-12-13T08:22:01.233Z,11.88
2022-12-13T08:24:30.408Z,10.63
2022-12-13T08:27:02.778Z,9.07
2022-12-13T08:32:07.239Z,10.20
2022-12-13T08:34:34.668Z,12.13
2022-12-13T08:37:03.543Z,19.83
2022-12-13T08:39:34.715Z,35.33
2022-12-13T08:42:16.058Z,46.10
2022-12-13T08:44:48.259Z,16.40
2022-12-13T08:47:23.139Z,11.77
2022-12-13T08:50:02.611Z,12.85
2022-12-13T08:52:40.181Z,18.50
2022-12-13T08:55:10.596Z,14.18
2022-12-13T08:57:38.329Z,14.38
2022-12-13T09:00:07.084Z,11.98
2022-12-13T09:02:38.023Z,12.60
2022-12-13T09:05:08.740Z,25.15
2022-12-13T09:07:36.829Z,15.32
2022-12-13T09:10:07.156Z,17.33
2022-12-13T09:13:01.809Z,11.20
2022-12-13T09:15:34.696Z,10.15
2022-12-13T09:18:04.727Z,12.73
2022-12-13T09:20:40.731Z,13.43
2022-12-13T09:23:14.211Z,14.00
2022-12-13T09:26:05.183Z,11.50
2022-12-13T09:28:33.510Z,8.75
2022-12-13T09:31:00.712Z,13.50
2022-12-13T09:33:30.669Z,10.65
2022-12-13T09:36:01.161Z,14.10
2022-12-13T09:38:28.501Z,11.88
2022-12-13T09:40:59.342Z,15.02
2022-12-13T09:43:42.887Z,16.45
2022-12-13T09:46:25.883Z,12.02
2022-12-13T09:49:01.863Z,10.82
2022-12-13T09:51:43.036Z,13.15
2022-12-13T09:54:18.783Z,18.02
2022-12-13T09:56:50.859Z,14.77
2022-12-13T09:59:21.665Z,11.60
2022-12-13T10:01:48.843Z,11.25
2022-12-13T10:04:16.189Z,12.43
2022-12-13T10:06:43.507Z,9.93
2022-12-13T10:09:13.964Z,14.35
2022-12-13T10:11:52.487Z,13.90
2022-12-13T10:14:29.067Z,11.15
2022-12-13T10:16:59.670Z,15.13
2022-12-13T10:19:40.391Z,12.30
2022-12-13T10:22:14.795Z,12.13
2022-12-13T10:24:48.226Z,13.48
2022-12-13T10:27:40.510Z,12.20
2022-12-13T10:30:13.506Z,11.93
2022-12-13T10:32:54.143Z,12.13
2022-12-13T10:35:30.373Z,11.93
2022-12-13T10:38:00.801Z,9.25
2022-12-13T10:40:46.753Z,9.45
2022-12-13T10:43:21.091Z,13.32
2022-12-13T10:46:00.229Z,12.88
2022-12-13T10:48:38.349Z,13.55
2022-12-13T10:51:20.037Z,15.27
2022-12-13T10:53:55.168Z,11.73
2022-12-13T10:56:32.689Z,11.23
2022-12-13T10:59:25.844Z,15.70
2022-12-13T11:01:53.780Z,11.07
2022-12-13T11:04:31.776Z,12.68
2022-12-13T11:07:21.532Z,15.20
2022-12-13T11:09:52.607Z,10.43
2022-12-13T11:12:27.856Z,14.35
2022-12-13T11:15:06.378Z,13.27
2022-12-13T11:17:45.691Z,16.00
2022-12-13T11:20:22.846Z,15.88
2022-12-13T11:22:58.700Z,16.95
2022-12-13T11:26:29.088Z,14.82
2022-12-13T11:29:45.319Z,12.07
2022-12-13T11:32:41.578Z,12.77
2022-12-13T11:35:38.330Z,10.70
2022-12-13T11:38:28.704Z,13.50
2022-12-13T11:41:32.279Z,17.75
2022-12-13T11:44:11.702Z,11.70
2022-12-13T11:46:52.531Z,11.65
2022-12-13T11:49:37.222Z,10.00
2022-12-13T11:52:13.807Z,9.13
2022-12-13T11:55:00.086Z,8.90
2022-12-13T11:57:32.321Z,11.20
2022-12-13T12:00:13.322Z,11.73
2022-12-13T12:02:45.928Z,11.25
2022-12-13T12:08:31.153Z,12.68
2022-12-13T12:11:29.837Z,8.23
2022-12-13T12:14:11.202Z,14.05
2022-12-13T12:16:44.101Z,11.35
2022-12-13T12:19:16.066Z,17.10
2022-12-13T12:22:14.263Z,11.38
2022-12-13T12:25:13.938Z,12.93
2022-12-13T12:28:00.167Z,16.27
2022-12-13T12:30:47.494Z,11.23
2022-12-13T12:33:45.283Z,8.65
2022-12-13T12:36:24.187Z,11.32
2022-12-13T12:39:01.994Z,11.27
2022-12-13T12:41:45.307Z,17.33
2022-12-13T12:44:33.711Z,15.88
2022-12-13T12:47:37.349Z,16.55
2022-12-13T12:50:36.519Z,27.63
2022-12-13T12:53:21.640Z,12.07
2022-12-13T12:56:19.655Z,9.38
2022-12-13T12:59:17.628Z,11.07
2022-12-13T13:01:55.124Z,5.93
2022-12-13T13:04:29.980Z,9.60
2022-12-13T13:07:06.361Z,12.02
2022-12-13T13:09:55.580Z,12.32
2022-12-13T13:12:29.696Z,13.98
2022-12-13T13:14:58.541Z,10.25
2022-12-13T13:17:25.995Z,17.75
2022-12-13T13:20:17.516Z,16.95
2022-12-13T13:22:53.757Z,12.60
2022-12-13T13:25:37.178Z,8.13
2022-12-13T13:28:17.317Z,16.55
2022-12-13T13:31:04.661Z,13.38
2022-12-13T13:33:46.074Z,21.67
2022-12-13T13:36:44.964Z,21.17
2022-12-13T13:39:39.277Z,10.35
2022-12-13T13:42:15.318Z,9.05
2022-12-13T13:44:45.534Z,15.80
2022-12-13T13:47:22.476Z,9.90
2022-12-13T13:50:02.831Z,10.20
2022-12-13T13:52:44.658Z,11.90
2022-12-13T13:55:42.728Z,12.63
2022-12-13T13:58:28.040Z,14.15
2022-12-13T14:01:35.842Z,32.58
2022-12-13T14:04:37.963Z,36.13
2022-12-13T14:08:01.262Z,58.78
2022-12-13T14:10:51.982Z,34.58
2022-12-13T14:13:49.500Z,33.30
2022-12-13T14:16:50.330Z,30.75
2022-12-13T14:19:29.409Z,35.15
2022-12-13T14:22:02.553Z,47.15
2022-12-13T14:24:50.578Z,38.67
2022-12-13T14:27:35.951Z,24.40
2022-12-13T14:30:27.577Z,21.80
2022-12-13T14:32:52.465Z,23.58
2022-12-13T14:35:31.336Z,27.85
2022-12-13T14:38:06.491Z,20.85
2022-12-13T14:40:47.203Z,21.30
2022-12-13T14:43:24.675Z,27.55
2022-12-13T14:46:04.084Z,18.02
2022-12-13T14:48:36.539Z,21.70
2022-12-13T14:53:42.934Z,15.57
2022-12-13T14:56:27.347Z,20.85
2022-12-13T14:59:00.465Z,16.42
2022-12-13T15:01:32.044Z,18.63
2022-12-13T15:04:30.828Z,18.10
2022-12-13T15:07:15.688Z,21.73
2022-12-13T15:09:45.008Z,20.52
2022-12-13T15:12:24.799Z,24.10
2022-12-13T15:15:08.656Z,21.67
2022-12-13T15:17:38.833Z,31.05
2022-12-13T15:20:20.947Z,44.55
2022-12-13T15:22:56.228Z,47.38
2022-12-13T15:25:23.597Z,77.82
2022-12-13T15:27:52.410Z,79.30
2022-12-13T15:30:20.568Z,51.05
2022-12-13T15:33:08.110Z,36.85
2022-12-13T15:35:39.101Z,49.38
2022-12-13T15:38:14.411Z,40.17
2022-12-13T15:40:55.781Z,40.03
2022-12-13T15:43:32.359Z,22.08
2022-12-13T15:45:59.941Z,33.33
2022-12-13T15:48:32.319Z,33.25
2022-12-13T15:51:10.159Z,32.85
2022-12-13T15:53:38.902Z,40.13
2022-12-13T15:56:33.010Z,29.17
2022-12-13T15:59:01.294Z,27.95
2022-12-13T16:01:36.158Z,27.80
2022-12-13T16:04:05.124Z,25.27
2022-12-13T16:06:33.526Z,29.63
2022-12-13T16:09:04.391Z,27.38
2022-12-13T16:11:34.239Z,27.50
2022-12-13T16:14:32.357Z,34.92
2022-12-13T16:17:00.509Z,18.80
2022-12-13T16:19:35.904Z,32.53
2022-12-13T16:22:08.502Z,31.88
2022-12-13T16:24:36.823Z,39.13
2022-12-13T16:27:08.652Z,83.22
2022-12-13T16:29:36.840Z,88.63
2022-12-13T16:32:08.520Z,65.03
2022-12-13T16:34:37.644Z,64.82
2022-12-13T16:37:08.725Z,63.10
2022-12-13T16:39:52.895Z,48.30
2022-12-13T16:42:20.011Z,57.03
2022-12-13T16:44:47.607Z,43.63
2022-12-13T16:47:23.357Z,33.90
2022-12-13T16:49:57.656Z,38.13
2022-12-13T16:52:24.515Z,49.70
2022-12-13T16:54:52.780Z,78.97
2022-12-13T16:57:19.779Z,82.47
2022-12-13T16:59:47.033Z,71.82
2022-12-13T17:02:18.043Z,63.20
2022-12-13T17:04:45.637Z,33.88
2022-12-13T17:07:13.137Z,29.75
2022-12-13T17:09:42.187Z,37.78
2022-12-13T17:12:09.353Z,30.20
2022-12-13T17:14:37.066Z,37.13
2022-12-13T17:17:04.423Z,36.88
2022-12-13T17:19:32.840Z,27.30
2022-12-13T17:21:59.757Z,38.05
2022-12-13T17:24:26.936Z,32.70
2022-12-13T17:26:56.751Z,37.85
2022-12-13T17:29:24.794Z,31.67
2022-12-13T17:31:52.492Z,30.63
2022-12-13T17:34:20.573Z,31.75
2022-12-13T17:36:47.468Z,48.78
2022-12-13T17:39:14.749Z,40.13
2022-12-13T17:41:41.897Z,88.90
2022-12-13T17:44:10.561Z,78.28
2022-12-13T17:46:37.642Z,84.45
2022-12-13T17:49:05.187Z,61.75
2022-12-13T17:51:32.628Z,44.72
2022-12-13T17:53:59.947Z,66.93
2022-12-13T17:56:26.892Z,318.45
2022-12-13T17:58:54.364Z,186.30
2022-12-13T18:01:23.954Z,158.80
2022-12-13T18:03:56.086Z,148.70
2022-12-13T18:06:24.723Z,147.57
2022-12-13T18:08:52.252Z,162.02
2022-12-13T18:11:36.057Z,138.40
2022-12-13T18:14:08.178Z,79.70
2022-12-13T18:16:38.341Z,64.63
2022-12-13T18:19:12.432Z,136.85
2022-12-13T18:21:40.302Z,124.40
2022-12-13T18:24:07.964Z,69.47
2022-12-13T18:26:36.611Z,50.25
2022-12-13T18:29:05.109Z,59.22
2022-12-13T18:31:33.125Z,61.15
2022-12-13T18:34:00.825Z,52.15
2022-12-13T18:36:28.587Z,43.03
2022-12-13T18:38:56.896Z,46.42
2022-12-13T18:41:28.369Z,43.58
2022-12-13T18:43:59.215Z,45.97
2022-12-13T18:46:28.776Z,43.13
2022-12-13T18:48:57.295Z,40.72
2022-12-13T18:51:25.319Z,42.92
2022-12-13T18:53:53.204Z,54.80
2022-12-13T18:56:23.088Z,55.65
2022-12-13T18:58:51.599Z,55.85
2022-12-13T19:01:20.663Z,47.70
2022-12-13T19:03:48.743Z,56.13
2022-12-13T19:06:25.305Z,65.63
2022-12-13T19:08:56.946Z,61.00
2022-12-13T19:11:26.284Z,68.47
2022-12-13T19:13:53.903Z,56.42
2022-12-13T19:16:23.634Z,57.95
2022-12-13T19:18:51.797Z,44.45
2022-12-13T19:21:21.147Z,54.35
2022-12-13T19:23:55.858Z,51.10
2022-12-13T19:26:25.604Z,48.38
2022-12-13T19:28:58.341Z,60.67
2022-12-13T19:31:30.961Z,51.05
2022-12-13T19:34:03.585Z,53.20
2022-12-13T19:36:32.217Z,51.67
2022-12-13T19:38:59.793Z,51.45
2022-12-13T19:41:27.359Z,59.78
2022-12-13T19:43:54.803Z,45.90
2022-12-13T19:46:21.833Z,47.97
2022-12-13T19:48:49.817Z,57.03
2022-12-13T19:51:16.815Z,52.80
2022-12-13T19:53:44.518Z,59.70
2022-12-13T19:56:13.931Z,53.33
2022-12-13T19:58:41.374Z,50.03
2022-12-13T20:01:10.663Z,46.30
2022-12-13T20:03:43.767Z,59.47
2022-12-13T20:06:13.448Z,53.63
2022-12-13T20:08:42.474Z,55.65
2022-12-13T20:11:16.119Z,53.35
2022-12-13T20:13:46.626Z,52.80
2022-12-13T20:16:21.967Z,48.75
2022-12-13T20:18:57.632Z,43.67
2022-12-13T20:21:25.708Z,51.83
2022-12-13T20:23:53.819Z,44.88
2022-12-13T20:26:26.223Z,45.00
2022-12-13T20:28:54.434Z,46.72
2022-12-13T20:31:25.058Z,43.55
2022-12-13T20:34:00.013Z,51.28
2022-12-13T20:36:28.726Z,43.30
2022-12-13T20:38:58.532Z,54.38
2022-12-13T20:41:27.622Z,50.03
2022-12-13T20:43:57.147Z,46.65
2022-12-13T20:46:25.545Z,55.33
2022-12-13T20:48:53.945Z,59.35
2022-12-13T20:51:23.943Z,52.67
2022-12-13T20:53:52.359Z,46.78
2022-12-13T20:56:21.870Z,45.15
2022-12-13T20:58:50.517Z,52.95
2022-12-13T21:01:30.382Z,42.17
2022-12-13T21:04:02.745Z,53.58
2022-12-13T21:06:30.866Z,49.53
2022-12-13T21:09:03.072Z,38.67
2022-12-13T21:11:35.938Z,36.20
2022-12-13T21:16:48.910Z,36.75
2022-12-13T21:19:19.512Z,49.40
2022-12-13T21:21:49.705Z,45.28
2022-12-13T21:24:18.463Z,46.83
2022-12-13T21:26:45.750Z,36.53
2022-12-13T21:29:14.128Z,36.50
2022-12-13T21:31:43.181Z,41.65
2022-12-13T21:34:11.746Z,54.22
2022-12-13T21:36:40.232Z,58.35
2022-12-13T21:39:12.828Z,46.33
2022-12-13T21:41:40.371Z,52.83
2022-12-13T21:44:10.202Z,36.53
2022-12-13T21:47:10.073Z,41.95
2022-12-13T21:49:24.275Z,42.97
2022-12-13T21:51:51.160Z,39.92
2022-12-13T21:54:18.840Z,36.45
2022-12-13T21:57:04.498Z,40.45
2022-12-13T21:59:31.988Z,43.85
2022-12-13T22:02:18.354Z,37.55
2022-12-13T22:04:52.822Z,43.88
2022-12-13T22:07:22.912Z,38.45
2022-12-13T22:09:51.542Z,34.42
2022-12-13T22:12:26.563Z,43.42
2022-12-13T22:14:54.072Z,40.40
2022-12-13T22:17:32.770Z,37.35
2022-12-13T22:20:02.750Z,42.60
2022-12-13T22:22:30.037Z,41.97
2022-12-13T22:24:57.183Z,43.13
2022-12-13T22:27:25.435Z,38.28
2022-12-13T22:29:56.874Z,32.85
2022-12-13T22:32:27.004Z,42.22
2022-12-13T22:34:54.888Z,38.10
2022-12-13T22:37:22.093Z,36.17
2022-12-13T22:39:49.789Z,46.20
2022-12-13T22:42:16.771Z,38.45
2022-12-13T22:44:44.392Z,39.80
2022-12-13T22:47:11.296Z,39.72
2022-12-13T22:49:38.698Z,36.80
2022-12-13T22:52:05.723Z,41.15
2022-12-13T22:54:32.869Z,49.17
2022-12-13T22:56:59.746Z,33.65
2022-12-13T22:59:27.236Z,40.78
2022-12-13T23:02:02.178Z,43.60
2022-12-13T23:04:32.049Z,48.00
2022-12-13T23:06:59.225Z,40.80
2022-12-13T23:09:26.457Z,45.42
2022-12-13T23:12:12.253Z,47.35
2022-12-13T23:14:39.405Z,37.50
2022-12-13T23:17:06.712Z,42.08
2022-12-13T23:19:50.215Z,43.80
2022-12-13T23:22:24.875Z,38.63
2022-12-13T23:24:53.159Z,45.58
2022-12-13T23:27:22.034Z,41.28
2022-12-13T23:29:49.974Z,41.65
2022-12-13T23:32:18.305Z,50.40
2022-12-13T23:34:45.457Z,51.72
2022-12-13T23:37:12.353Z,44.70
2022-12-13T23:39:39.569Z,49.00
2022-12-13T23:42:06.455Z,50.60
2022-12-13T23:44:33.693Z,45.58
2022-12-13T23:47:00.706Z,38.75
2022-12-13T23:49:28.810Z,56.55
2022-12-13T23:51:55.746Z,42.50
2022-12-13T23:54:22.995Z,48.40
2022-12-13T23:56:49.891Z,38.47
2022-12-13T23:59:17.082Z,39.95
